Time;durP1;ratioP1;P1;durP2;ratioP2;P2;SDS_P1;SDS_P2;PMS_P1;PMS_P2;Temp;Humidity;BMP_temperature;BMP_pressure;BME280_temperature;BME280_humidity;BME280_pressure;Samples;Min_cycle;Max_cycle;Signal;HPM_P1;HPM_P2
2021/12/28 00:02:21;;;;;;;247.68;121.07;;;;;;;9.73;100.00;99300.63;4827389;29;20042;-66
2021/12/28 00:05:04;;;;;;;253.77;119.90;;;;;;;9.67;100.00;99300.69;4823994;29;20154;-66
2021/12/28 00:08:00;;;;;;;239.05;119.53;;;;;;;9.78;100.00;99302.22;4825645;29;20050;-65
2021/12/28 00:10:35;;;;;;;249.00;119.22;;;;;;;9.80;100.00;99299.63;4820581;29;20069;-66
2021/12/28 00:13:25;;;;;;;253.93;121.45;;;;;;;9.86;100.00;99297.78;4806371;29;20114;-66
2021/12/28 00:18:56;;;;;;;244.20;117.85;;;;;;;9.74;100.00;99287.69;4818555;29;19925;-66
2021/12/28 00:21:38;;;;;;;244.90;120.38;;;;;;;9.69;100.00;99298.94;4821227;29;20494;-66
2021/12/28 00:24:27;;;;;;;252.88;118.28;;;;;;;9.68;100.00;99297.25;4821275;29;20062;-66
2021/12/28 00:27:15;;;;;;;244.43;117.22;;;;;;;9.88;100.00;99295.19;4836843;29;20053;-66
2021/12/28 00:29:57;;;;;;;247.00;116.57;;;;;;;9.77;100.00;99295.38;4818548;29;20188;-66
2021/12/28 00:32:52;;;;;;;247.23;111.65;;;;;;;9.73;100.00;99306.59;4814791;29;20118;-67
2021/12/28 00:35:38;;;;;;;233.98;103.63;;;;;;;9.70;100.00;99292.94;4830475;29;20462;-66
2021/12/28 00:38:33;;;;;;;208.55;93.35;;;;;;;9.86;100.00;99300.38;4800740;29;20459;-67
2021/12/28 00:41:15;;;;;;;180.05;80.90;;;;;;;9.84;100.00;99299.53;4795965;29;20083;-65
2021/12/28 00:44:03;;;;;;;158.63;75.03;;;;;;;9.90;100.00;99299.44;4819244;29;20061;-65
2021/12/28 00:46:45;;;;;;;147.27;69.30;;;;;;;9.86;100.00;99304.66;4819260;29;20066;-65
2021/12/28 00:49:36;;;;;;;129.65;60.97;;;;;;;9.82;100.00;99315.88;4822252;29;20122;-65
2021/12/28 00:52:17;;;;;;;;;;;;;;;9.80;100.00;99312.50;4831816;29;20106;-65
2021/12/28 00:55:06;;;;;;;134.32;59.05;;;;;;;9.80;100.00;99313.34;4822969;29;19989;-65
2021/12/28 00:58:00;;;;;;;118.13;54.65;;;;;;;9.68;100.00;99304.97;4818558;29;20058;-65
2021/12/28 01:00:39;;;;;;;105.05;48.38;;;;;;;9.61;100.00;99311.94;4833911;29;20077;-65
2021/12/28 01:03:28;;;;;;;92.45;44.55;;;;;;;9.58;100.00;99310.25;4814591;29;20170;-65
2021/12/28 01:06:11;;;;;;;85.88;42.45;;;;;;;9.59;100.00;99314.53;4826395;29;20652;-64
2021/12/28 01:09:00;;;;;;;87.03;41.25;;;;;;;9.54;100.00;99321.47;4819229;29;20059;-66
2021/12/28 01:11:50;;;;;;;85.10;39.20;;;;;;;9.56;100.00;99312.03;4802264;29;20057;-65
2021/12/28 01:14:39;;;;;;;73.57;37.50;;;;;;;9.52;100.00;99318.06;4802184;29;20149;-67
2021/12/28 01:17:21;;;;;;;76.63;38.15;;;;;;;9.47;100.00;99319.88;4818502;29;20188;-66
2021/12/28 01:20:13;;;;;;;79.30;38.45;;;;;;;9.52;100.00;99323.22;4818723;29;20115;-65
2021/12/28 01:23:01;;;;;;;71.13;36.75;;;;;;;9.55;100.00;99328.31;4818021;29;20299;-66
2021/12/28 01:25:50;;;;;;;68.50;36.33;;;;;;;9.53;100.00;99335.22;4817899;29;20054;-66
2021/12/28 01:28:31;;;;;;;71.53;33.80;;;;;;;9.59;100.00;99327.38;4818544;29;20049;-66
2021/12/28 01:31:20;;;;;;;69.57;35.42;;;;;;;9.53;100.00;99335.22;4817902;29;20097;-66
2021/12/28 01:34:02;;;;;;;65.45;33.58;;;;;;;9.53;100.00;99335.22;4819086;29;20129;-66
2021/12/28 01:36:51;;;;;;;65.95;33.05;;;;;;;9.54;100.00;99336.91;4799938;29;20050;-66
2021/12/28 01:39:39;;;;;;;71.05;34.33;;;;;;;9.55;100.00;99338.63;4818365;29;20471;-66
2021/12/28 01:42:35;;;;;;;65.30;33.15;;;;;;;9.56;100.00;99335.16;4818315;29;20133;-65
2021/12/28 01:45:11;;;;;;;72.93;35.25;;;;;;;9.55;100.00;99338.63;4818142;29;20065;-66
2021/12/28 01:48:07;;;;;;;70.10;35.22;;;;;;;9.53;100.00;99340.34;4826924;29;20050;-66
2021/12/28 01:50:43;;;;;;;67.63;35.40;;;;;;;9.58;100.00;99343.69;4805200;29;20058;-65
2021/12/28 01:53:33;;;;;;;67.90;34.65;;;;;;;9.55;100.00;99343.75;4818647;29;20127;-65
2021/12/28 01:56:30;;;;;;;77.00;37.85;;;;;;;9.54;100.00;99341.19;4818121;29;20077;-66
2021/12/28 01:59:15;;;;;;;76.55;35.30;;;;;;;9.65;100.00;99346.19;4818492;29;20084;-65
2021/12/28 02:02:04;;;;;;;81.18;37.83;;;;;;;9.59;100.00;99350.53;4820772;29;20053;-65
2021/12/28 02:04:53;;;;;;;85.35;39.75;;;;;;;9.67;100.00;99350.41;4819174;29;20054;-67
2021/12/28 02:07:35;;;;;;;94.78;42.28;;;;;;;9.72;100.00;99350.38;4823022;29;20050;-66
2021/12/28 02:10:23;;;;;;;94.13;43.30;;;;;;;9.64;100.00;99354.78;4840625;29;20066;-65
2021/12/28 02:13:05;;;;;;;82.30;40.65;;;;;;;9.73;100.00;99340.06;4836300;29;20050;-65
2021/12/28 02:16:03;;;;;;;84.70;40.50;;;;;;;9.64;100.00;99344.50;4837018;29;20558;-66
2021/12/28 02:18:39;;;;;;;82.10;38.80;;;;;;;9.53;100.00;99345.50;4836201;29;20068;-66
2021/12/28 02:21:30;;;;;;;81.80;39.17;;;;;;;9.56;100.00;99353.19;4835040;29;20053;-66
2021/12/28 02:24:14;;;;;;;82.35;36.88;;;;;;;9.52;100.00;99348.09;4817751;29;20144;-66
2021/12/28 02:27:03;;;;;;;84.28;38.38;;;;;;;9.56;100.00;99353.19;4819652;29;20050;-66
2021/12/28 02:29:51;;;;;;;80.53;39.90;;;;;;;9.57;100.00;99346.31;4801720;29;20078;-66
2021/12/28 02:32:36;;;;;;;80.38;41.60;;;;;;;9.57;100.00;99342.03;4818248;29;20065;-66
2021/12/28 02:35:28;;;;;;;94.85;43.03;;;;;;;9.77;100.00;99345.97;4817750;29;20115;-67
2021/12/28 02:38:11;;;;;;;93.00;44.03;;;;;;;9.88;100.00;99344.09;4817989;29;20180;-68
2021/12/28 02:41:00;;;;;;;84.15;41.28;;;;;;;9.89;100.00;99344.06;4827084;29;20583;-67
2021/12/28 02:43:45;;;;;;;91.82;46.50;;;;;;;9.87;100.00;99344.97;4825985;29;20734;-67
2021/12/28 02:46:33;;;;;;;114.50;52.45;;;;;;;9.93;100.00;99350.84;4826785;29;20065;-66
2021/12/28 02:49:15;;;;;;;113.10;54.30;;;;;;;10.04;100.00;99345.53;4824291;29;20066;-67
2021/12/28 02:52:09;;;;;;;122.85;58.35;;;;;;;10.08;100.00;99347.16;4805797;29;20059;-66
2021/12/28 02:54:51;;;;;;;112.68;58.22;;;;;;;10.19;100.00;99352.16;4823994;29;20053;-66
2021/12/28 02:57:40;;;;;;;127.00;58.08;;;;;;;10.24;100.00;99351.19;4828126;29;20133;-67
2021/12/28 03:00:41;;;;;;;121.25;59.55;;;;;;;10.39;100.00;99359.53;4824012;29;20062;-67
2021/12/28 03:03:33;;;;;;;121.32;58.78;;;;;;;10.46;100.00;99351.66;4825386;29;20042;-67
2021/12/28 03:06:17;;;;;;;118.82;57.55;;;;;;;10.52;100.00;99354.13;4825865;29;20057;-66
2021/12/28 03:09:07;;;;;;;125.47;58.55;;;;;;;10.56;100.00;99362.63;4824948;29;20065;-66
2021/12/28 03:11:56;;;;;;;123.15;57.88;;;;;;;10.65;100.00;99363.31;4822898;29;20081;-66
2021/12/28 03:14:38;;;;;;;125.50;59.50;;;;;;;10.79;100.00;99370.75;4826612;29;20069;-66
2021/12/28 03:17:26;;;;;;;119.15;60.30;;;;;;;10.98;100.00;99371.25;4794958;29;20054;-67
2021/12/28 03:20:19;;;;;;;124.43;61.05;;;;;;;11.27;100.00;99379.22;4824034;29;20106;-66
2021/12/28 03:23:03;;;;;;;110.28;57.63;;;;;;;11.70;100.00;99384.28;4829813;29;20065;-67
2021/12/28 03:25:52;;;;;;;110.60;57.20;;;;;;;12.13;100.00;99384.09;4799197;29;20042;-66
2021/12/28 03:28:36;;;;;;;;;;;;;;;12.48;100.00;99390.97;4826525;29;20069;-66
2021/12/28 03:31:27;;;;;;;116.15;54.72;;;;;;;12.80;100.00;99392.69;4817307;29;19925;-67
2021/12/28 03:34:17;;;;;;;107.18;52.58;;;;;;;12.98;97.77;99407.69;4813432;29;20073;-66
2021/12/28 03:37:05;;;;;;;102.15;51.38;;;;;;;13.49;94.78;99406.25;4820858;29;20062;-66
2021/12/28 03:39:46;;;;;;;96.90;50.97;;;;;;;13.74;90.92;99410.63;4828133;29;20453;-67
2021/12/28 03:42:35;;;;;;;96.28;48.38;;;;;;;14.13;87.47;99410.25;4817850;29;20050;-67
2021/12/28 03:45:18;;;;;;;87.80;46.13;;;;;;;14.41;86.38;99418.00;4802678;29;20386;-67
2021/12/28 03:48:07;;;;;;;89.70;46.35;;;;;;;14.73;84.06;99415.16;4817184;29;20118;-67
2021/12/28 03:50:49;;;;;;;95.53;48.53;;;;;;;14.83;82.93;99419.13;4811659;29;20043;-67
2021/12/28 03:53:38;;;;;;;100.88;47.05;;;;;;;15.11;80.65;99418.09;4815414;29;20149;-68
2021/12/28 03:56:33;;;;;;;85.85;45.33;;;;;;;15.40;77.89;99427.44;4818924;29;20423;-67
2021/12/28 03:59:08;;;;;;;87.35;44.08;;;;;;;15.97;79.08;99426.94;4827689;29;20062;-67
2021/12/28 04:01:57;;;;;;;92.88;43.15;;;;;;;16.22;74.94;99432.00;4818758;29;20053;-67
2021/12/28 04:04:40;;;;;;;84.72;43.40;;;;;;;16.22;74.96;99430.25;4822740;29;20085;-69
2021/12/28 04:07:35;;;;;;;89.65;41.78;;;;;;;16.41;73.69;99436.38;4813130;29;20468;-69
2021/12/28 04:10:11;;;;;;;74.45;39.70;;;;;;;16.46;73.31;99431.81;4820468;29;20138;-69
2021/12/28 04:13:07;;;;;;;89.05;39.60;;;;;;;16.98;69.24;99431.41;4824127;29;20065;-69
2021/12/28 04:15:42;;;;;;;69.18;38.55;;;;;;;16.54;68.76;99431.50;4829829;29;20133;-69
2021/12/28 04:18:37;;;;;;;77.55;37.50;;;;;;;16.81;70.83;99432.13;4813748;29;20082;-70
2021/12/28 04:21:13;;;;;;;68.47;37.67;;;;;;;16.80;69.72;99436.47;4832012;29;20046;-70
2021/12/28 04:24:02;;;;;;;75.15;39.95;;;;;;;17.02;68.00;99433.78;4828209;29;20038;-67
2021/12/28 04:26:44;;;;;;;77.60;40.33;;;;;;;17.28;69.27;99434.38;4813174;29;20054;-68
2021/12/28 04:29:33;;;;;;;80.28;42.42;;;;;;;17.58;69.94;99432.97;4824905;29;20062;-68
2021/12/28 04:32:15;;;;;;;79.80;44.05;;;;;;;17.14;67.38;99432.41;4809218;29;20115;-68
2021/12/28 04:35:12;;;;;;;82.40;41.35;;;;;;;17.26;65.57;99436.22;4827381;29;20058;-68
2021/12/28 04:37:47;;;;;;;70.80;40.85;;;;;;;17.59;67.52;99434.66;4826786;29;20053;-68
2021/12/28 04:40:35;;;;;;;88.22;43.80;;;;;;;17.37;67.37;99433.97;4812591;29;20089;-70
2021/12/28 04:43:17;;;;;;;82.90;38.40;;;;;;;17.20;65.28;99426.91;4802428;29;20039;-68
2021/12/28 04:46:05;;;;;;;78.32;40.45;;;;;;;17.35;67.25;99427.97;4819273;29;20486;-68
2021/12/28 04:48:47;;;;;;;79.00;41.38;;;;;;;17.15;64.46;99426.28;4824046;29;20622;-68
2021/12/28 04:51:35;;;;;;;83.38;41.42;;;;;;;17.29;64.98;99426.50;4831885;29;20065;-68
2021/12/28 04:54:17;;;;;;;79.68;42.05;;;;;;;17.25;65.16;99419.72;4806496;29;20118;-67
2021/12/28 04:57:06;;;;;;;87.97;43.40;;;;;;;17.23;66.55;99425.94;4822215;29;20046;-67
2021/12/28 04:59:48;;;;;;;98.43;44.72;;;;;;;17.46;68.02;99415.31;4822579;29;20058;-67
2021/12/28 05:02:44;;;;;;;85.40;42.70;;;;;;;17.32;67.46;99423.75;4823692;29;20102;-67
2021/12/28 05:05:19;;;;;;;86.82;40.22;;;;;;;17.37;66.16;99419.19;4817664;29;20038;-68
2021/12/28 05:08:16;;;;;;;77.18;37.75;;;;;;;17.24;65.95;99417.22;4817588;29;20491;-68
2021/12/28 05:11:04;;;;;;;73.93;36.35;;;;;;;17.25;66.51;99416.28;4830157;29;20562;-68
2021/12/28 05:13:53;;;;;;;66.30;33.85;;;;;;;16.95;65.62;99419.34;4817011;29;20072;-68
2021/12/28 05:16:47;;;;;;;67.35;34.70;;;;;;;16.96;69.75;99412.38;4820484;29;20046;-68
2021/12/28 05:19:37;;;;;;;67.13;34.70;;;;;;;17.03;67.82;99419.84;4802548;29;20158;-68
2021/12/28 05:22:20;;;;;;;68.05;36.60;;;;;;;17.10;66.68;99410.00;4809797;29;20068;-68
2021/12/28 05:25:10;;;;;;;65.00;35.92;;;;;;;17.08;66.80;99412.69;4823111;29;20146;-67
2021/12/28 05:27:53;;;;;;;71.38;35.75;;;;;;;17.28;67.81;99410.94;4825445;29;20137;-67
2021/12/28 05:30:43;;;;;;;66.50;36.03;;;;;;;17.32;64.30;99404.69;4811965;29;20046;-68
2021/12/28 05:33:25;;;;;;;72.00;36.40;;;;;;;17.40;65.78;99398.19;4831918;29;20059;-67
2021/12/28 05:36:15;;;;;;;75.30;35.67;;;;;;;17.46;65.92;99397.09;4814182;29;20046;-67
2021/12/28 05:38:57;;;;;;;71.72;36.38;;;;;;;17.62;66.16;99397.25;4822352;29;20103;-68
2021/12/28 05:41:45;;;;;;;70.65;36.67;;;;;;;17.71;67.83;99395.06;4823735;29;20058;-67
2021/12/28 05:44:39;;;;;;;72.93;36.45;;;;;;;18.12;63.49;99397.44;4821580;29;21020;-67
2021/12/28 05:47:15;;;;;;;67.10;38.03;;;;;;;18.23;66.06;99387.28;4826578;29;20489;-68
2021/12/28 05:50:13;;;;;;;74.88;37.40;;;;;;;18.38;65.81;99383.91;4816693;29;20076;-68
2021/12/28 05:52:48;;;;;;;73.60;36.83;;;;;;;18.05;63.01;99382.97;4819023;29;20490;-65
2021/12/28 05:55:37;;;;;;;72.75;36.95;;;;;;;18.21;62.88;99382.13;4819300;29;20054;-64
2021/12/28 05:58:19;;;;;;;92.00;38.53;;;;;;;18.07;63.24;99373.31;4821199;29;20070;-65
2021/12/28 06:01:08;;;;;;;85.45;36.95;;;;;;;18.17;63.96;99371.94;4828591;29;20057;-65
2021/12/28 06:03:50;;;;;;;72.57;36.08;;;;;;;18.33;61.34;99370.25;4826441;29;20128;-66
2021/12/28 06:06:46;;;;;;;76.18;35.88;;;;;;;18.39;61.57;99366.50;4823331;29;20404;-65
2021/12/28 06:09:34;;;;;;;77.20;34.78;;;;;;;18.66;62.44;99368.56;4821619;29;20062;-68
2021/12/28 06:12:22;;;;;;;63.95;34.03;;;;;;;18.49;61.10;99362.50;4818866;29;20074;-67
2021/12/28 06:15:04;;;;;;;73.85;34.80;;;;;;;18.63;62.98;99355.66;4817583;29;20050;-67
2021/12/28 06:17:52;;;;;;;69.85;33.95;;;;;;;18.45;60.79;99353.13;4817601;29;20115;-67
2021/12/28 06:20:34;;;;;;;76.65;34.72;;;;;;;18.92;59.99;99354.13;4813803;29;20925;-69
2021/12/28 06:23:23;;;;;;;72.22;36.35;;;;;;;18.68;58.13;99347.59;4819348;29;20055;-66
2021/12/28 06:26:05;;;;;;;72.57;37.65;;;;;;;18.80;58.72;99346.13;4817780;29;20054;-70
2021/12/28 06:28:54;;;;;;;71.50;34.53;;;;;;;18.85;59.97;99338.88;4827882;29;20050;-71
2021/12/28 06:31:41;;;;;;;72.75;37.35;;;;;;;19.10;58.87;99341.84;4826919;29;20062;-69
2021/12/28 06:34:30;;;;;;;71.47;36.95;;;;;;;18.95;58.48;99332.25;4835134;29;20077;-68
2021/12/28 06:37:12;;;;;;;76.57;37.67;;;;;;;19.19;58.09;99330.91;4828354;29;20429;-70
2021/12/28 06:40:01;;;;;;;81.35;37.58;;;;;;;19.31;60.22;99330.25;4823708;29;20145;-65
2021/12/28 06:42:44;;;;;;;83.53;37.45;;;;;;;19.21;58.81;99323.84;4823965;29;20062;-69
2021/12/28 06:45:33;;;;;;;71.57;36.97;;;;;;;19.34;58.76;99324.84;4831922;29;20126;-68
2021/12/28 06:48:22;;;;;;;78.88;38.40;;;;;;;19.24;58.09;99315.81;4817802;29;20050;-66
2021/12/28 06:51:05;;;;;;;79.60;36.85;;;;;;;19.12;58.09;99311.28;4818178;29;20063;-67
2021/12/28 06:53:54;;;;;;;84.38;37.80;;;;;;;19.47;57.69;99301.53;4817307;29;20118;-66
2021/12/28 06:56:36;;;;;;;63.92;35.30;;;;;;;19.43;56.39;99308.66;4823956;29;20553;-67
2021/12/28 06:59:31;;;;;;;75.53;35.78;;;;;;;19.60;56.74;99304.28;4828642;29;20058;-68
2021/12/28 07:02:06;;;;;;;68.15;34.95;;;;;;;19.51;55.75;99295.19;4799651;29;20503;-68
2021/12/28 07:05:02;;;;;;;65.18;34.53;;;;;;;19.52;53.47;99296.88;4815035;29;20059;-68
2021/12/28 07:07:51;;;;;;;82.22;35.80;;;;;;;19.48;53.49;99296.19;4820958;29;20058;-69
2021/12/28 07:10:38;;;;;;;74.72;35.65;;;;;;;19.62;58.20;99286.75;4817481;29;20061;-70
2021/12/28 07:13:20;;;;;;;76.63;34.83;;;;;;;19.57;53.99;99291.38;4826747;29;20045;-69
2021/12/28 07:16:09;;;;;;;75.53;35.28;;;;;;;19.77;55.02;99286.72;4834772;29;20149;-68
2021/12/28 07:18:52;;;;;;;65.60;33.97;;;;;;;19.97;56.36;99275.06;4819784;29;20539;-68
2021/12/28 07:21:41;;;;;;;68.63;34.22;;;;;;;19.92;52.81;99274.50;4827191;29;20078;-65
2021/12/28 07:24:30;;;;;;;79.53;33.08;;;;;;;20.11;55.27;99269.03;4817870;29;20050;-67
2021/12/28 07:27:26;;;;;;;76.63;34.35;;;;;;;19.63;52.52;99275.38;4817426;29;20436;-64
2021/12/28 07:30:02;;;;;;;72.70;34.10;;;;;;;19.75;54.19;99261.56;4815860;29;20047;-64
2021/12/28 07:32:51;;;;;;;79.72;32.83;;;;;;;19.89;54.59;99253.75;4808830;29;20518;-64
2021/12/28 07:35:33;;;;;;;69.35;32.92;;;;;;;19.98;54.54;99253.22;4806035;29;20488;-64
2021/12/28 07:38:28;;;;;;;69.78;33.88;;;;;;;20.05;56.53;99249.28;4817467;29;20046;-64
2021/12/28 07:41:03;;;;;;;59.20;32.17;;;;;;;20.00;53.63;99240.91;4823826;29;20050;-64
2021/12/28 07:43:52;;;;;;;67.30;30.13;;;;;;;19.94;52.04;99241.25;4825532;29;20130;-64
2021/12/28 07:46:33;;;;;;;69.03;28.40;;;;;;;19.90;52.64;99242.38;4803997;29;20111;-64
2021/12/28 07:49:29;;;;;;;55.13;26.23;;;;;;;19.87;53.16;99232.09;4826807;29;20165;-64
2021/12/28 07:52:05;;;;;;;54.78;26.65;;;;;;;19.99;53.07;99230.53;4828185;29;20073;-68
2021/12/28 07:54:53;;;;;;;84.18;31.15;;;;;;;19.98;54.92;99227.06;4835358;29;20074;-64
2021/12/28 07:57:35;;;;;;;61.65;28.48;;;;;;;20.03;58.47;99226.81;4831845;29;20062;-64
2021/12/28 08:00:30;;;;;;;65.10;27.35;;;;;;;19.93;52.10;99221.28;4820018;29;20120;-64
2021/12/28 08:03:05;;;;;;;55.80;26.13;;;;;;;19.96;51.64;99217.59;4830776;29;20077;-63
2021/12/28 08:05:55;;;;;;;57.28;27.67;;;;;;;19.88;52.73;99215.44;4831405;29;20128;-66
2021/12/28 08:08:50;;;;;;;47.80;23.48;;;;;;;19.78;53.36;99203.88;4825326;29;20046;-65
2021/12/28 08:11:45;;;;;;;44.35;24.30;;;;;;;19.85;53.65;99205.19;4829558;29;20065;-67
2021/12/28 08:14:21;;;;;;;41.58;21.80;;;;;;;19.70;50.62;99200.88;4820378;29;20789;-65
2021/12/28 08:17:17;;;;;;;52.45;22.42;;;;;;;19.82;51.38;99202.75;4827844;29;20367;-66
2021/12/28 08:19:52;;;;;;;46.97;23.13;;;;;;;19.79;52.12;99195.09;4826211;29;20732;-65
2021/12/28 08:22:50;;;;;;;49.97;21.60;;;;;;;19.65;51.00;99198.50;4825505;29;20423;-66
2021/12/28 08:25:25;;;;;;;49.60;21.13;;;;;;;19.73;51.80;99191.06;4826918;29;20412;-65
2021/12/28 08:28:21;;;;;;;52.20;20.90;;;;;;;19.65;49.21;99188.06;4829392;29;20563;-65
2021/12/28 08:30:57;;;;;;;45.70;19.58;;;;;;;19.72;49.75;99183.31;4824453;29;20054;-64
2021/12/28 08:33:46;;;;;;;44.60;19.77;;;;;;;19.82;49.47;99184.44;4816481;29;20398;-65
2021/12/28 08:36:28;;;;;;;39.25;20.58;;;;;;;19.74;50.51;99177.06;4828054;29;20122;-66
2021/12/28 08:39:17;;;;;;;39.88;19.27;;;;;;;19.70;50.22;99185.19;4819737;29;20114;-66
2021/12/28 08:42:06;;;;;;;47.83;20.38;;;;;;;19.81;49.80;99172.28;4820443;29;20060;-67
2021/12/28 08:44:48;;;;;;;33.28;18.38;;;;;;;19.75;49.27;99178.75;4803623;29;20081;-66
2021/12/28 08:47:37;;;;;;;45.35;19.98;;;;;;;19.40;48.79;99175.53;4818497;29;20077;-66
2021/12/28 08:50:28;;;;;;;43.72;18.33;;;;;;;19.38;49.49;99166.97;4824357;29;20122;-66
2021/12/28 08:53:18;;;;;;;44.97;21.13;;;;;;;19.42;51.44;99171.06;4836328;29;20057;-66
2021/12/28 08:56:00;;;;;;;;;;;;;;;19.46;52.58;99171.75;4829089;29;20382;-65
2021/12/28 08:58:48;;;;;;;37.90;21.52;;;;;;;19.43;53.89;99162.31;4835821;29;19939;-65
2021/12/28 09:01:37;;;;;;;45.58;21.52;;;;;;;19.38;51.36;99159.13;4799722;29;20122;-66
2021/12/28 09:04:19;;;;;;;43.58;21.80;;;;;;;19.27;50.83;99156.28;4810437;29;20483;-65
2021/12/28 09:07:14;;;;;;;54.47;21.83;;;;;;;19.43;54.68;99156.25;4822610;29;20353;-65
2021/12/28 09:10:06;;;;;;;53.30;22.58;;;;;;;19.41;55.86;99152.88;4797792;29;20635;-65
2021/12/28 09:12:48;;;;;;;44.53;21.55;;;;;;;19.32;51.92;99162.09;4824595;29;20061;-65
2021/12/28 09:15:37;;;;;;;46.97;22.45;;;;;;;19.34;52.15;99156.78;4824806;29;20115;-65
2021/12/28 09:18:19;;;;;;;65.90;22.80;;;;;;;19.38;52.83;99153.91;4824643;29;20145;-65
2021/12/28 09:21:07;;;;;;;45.10;21.27;;;;;;;19.33;52.15;99152.47;4827329;29;20110;-65
2021/12/28 09:23:56;;;;;;;44.03;17.70;;;;;;;19.29;49.59;99154.44;4826070;29;20050;-66
2021/12/28 09:27:04;;;;;;;44.53;18.25;;;;;;;19.23;49.38;99154.81;4816727;29;20056;-66
2021/12/28 09:29:47;;;;;;;34.40;17.98;;;;;;;19.17;48.82;99152.53;4826555;29;20062;-67
2021/12/28 09:32:35;;;;;;;38.35;18.42;;;;;;;19.13;50.61;99158.03;4812091;29;20447;-66
2021/12/28 09:35:18;;;;;;;47.35;18.27;;;;;;;19.21;50.76;99151.44;4816564;29;20042;-67
2021/12/28 09:38:16;;;;;;;40.22;18.80;;;;;;;19.17;49.03;99155.13;4818350;29;20515;-66
2021/12/28 09:40:51;;;;;;;36.13;17.35;;;;;;;19.11;48.87;99155.50;4821355;29;20871;-65
2021/12/28 09:43:47;;;;;;;48.00;18.42;;;;;;;19.09;47.82;99152.97;4815906;29;21246;-66
2021/12/28 09:46:22;;;;;;;37.95;17.52;;;;;;;19.08;47.74;99151.28;4821551;29;20461;-66
2021/12/28 09:49:11;;;;;;;40.15;19.88;;;;;;;19.01;47.60;99147.34;4816450;29;20092;-65
2021/12/28 09:51:53;;;;;;;41.80;17.38;;;;;;;19.02;49.15;99150.78;4812806;29;20177;-66
2021/12/28 09:54:43;;;;;;;41.95;18.95;;;;;;;19.00;48.35;99152.63;4814888;29;20130;-66
2021/12/28 09:57:25;;;;;;;35.55;16.90;;;;;;;19.01;49.46;99149.09;4812043;29;20078;-66
2021/12/28 10:00:16;;;;;;;42.30;19.02;;;;;;;18.90;48.77;99148.88;4815113;29;20061;-65
2021/12/28 10:03:18;;;;;;;30.38;16.08;;;;;;;18.85;48.73;99143.91;4806008;29;20053;-67
2021/12/28 10:06:18;;;;;;;40.53;16.75;;;;;;;18.77;48.84;99142.66;4828861;29;20054;-67
2021/12/28 10:09:18;;;;;;;39.63;15.60;;;;;;;18.75;47.39;99147.13;4815677;29;20054;-69
2021/12/28 10:12:06;;;;;;;38.38;16.38;;;;;;;18.72;47.80;99142.91;4814469;29;20058;-68
2021/12/28 10:14:48;;;;;;;35.75;16.02;;;;;;;18.68;49.15;99154.44;4805041;29;20566;-66
2021/12/28 10:17:38;;;;;;;41.85;16.30;;;;;;;18.72;48.47;99148.13;4825947;29;20107;-65
2021/12/28 10:20:24;;;;;;;39.33;17.63;;;;;;;18.66;49.61;99146.72;4811997;29;20115;-64
2021/12/28 10:23:15;;;;;;;36.13;16.50;;;;;;;18.62;48.75;99146.97;4815093;29;20061;-63
2021/12/28 10:26:11;;;;;;;31.98;15.90;;;;;;;18.56;46.90;99140.31;4827040;29;20050;-64
2021/12/28 10:29:02;;;;;;;42.65;15.98;;;;;;;18.55;48.88;99146.44;4818417;29;20449;-66
2021/12/28 10:31:44;;;;;;;50.58;17.60;;;;;;;18.55;49.69;99141.22;4818066;29;20058;-65
2021/12/28 10:34:45;;;;;;;42.95;17.05;;;;;;;18.50;49.48;99135.41;4819313;29;20069;-64
2021/12/28 10:37:36;;;;;;;37.35;17.35;;;;;;;18.46;48.60;99140.84;4812749;29;20058;-67
2021/12/28 10:40:26;;;;;;;48.92;18.88;;;;;;;18.36;50.62;99133.53;4818251;29;20061;-65
2021/12/28 10:43:12;;;;;;;35.63;17.60;;;;;;;18.30;51.67;99140.84;4812559;29;20049;-66
2021/12/28 10:46:12;;;;;;;32.97;16.88;;;;;;;18.22;51.53;99135.22;4819383;29;20104;-68
2021/12/28 10:48:51;;;;;;;40.22;18.48;;;;;;;18.18;50.94;99131.09;4823015;29;20060;-67
2021/12/28 10:51:42;;;;;;;47.85;18.08;;;;;;;18.15;50.25;99137.31;4819006;29;20448;-66
2021/12/28 10:54:24;;;;;;;34.20;17.77;;;;;;;18.11;51.71;99130.59;4818436;29;20786;-67
2021/12/28 10:57:11;;;;;;;41.60;17.88;;;;;;;17.98;51.58;99133.00;4808667;29;20054;-67
2021/12/28 10:59:54;;;;;;;39.72;18.95;;;;;;;17.97;50.94;99133.91;4819461;29;20058;-67
2021/12/28 11:02:41;;;;;;;46.03;17.42;;;;;;;17.84;52.53;99132.88;4824675;29;20629;-63
2021/12/28 11:05:39;;;;;;;40.13;18.45;;;;;;;17.86;53.83;99133.66;4822756;29;20057;-67
2021/12/28 11:08:29;;;;;;;48.50;18.20;;;;;;;17.71;52.60;99131.84;4823381;29;20057;-66
2021/12/28 11:11:15;;;;;;;36.67;17.08;;;;;;;17.76;54.19;99128.97;4824196;29;20054;-68
2021/12/28 11:14:09;;;;;;;58.28;18.55;;;;;;;17.65;53.92;99128.69;4823182;29;20050;-67
2021/12/28 11:17:05;;;;;;;44.45;18.77;;;;;;;17.66;53.88;99127.75;4820917;29;20046;-66
2021/12/28 11:19:58;;;;;;;37.15;19.23;;;;;;;17.62;55.41;99137.53;4825419;29;20545;-67
2021/12/28 11:22:46;;;;;;;50.58;19.42;;;;;;;17.54;57.56;99137.88;4819734;29;20118;-67
2021/12/28 11:25:30;;;;;;;44.17;19.75;;;;;;;17.51;58.89;99129.38;4825404;29;20058;-67
2021/12/28 11:28:36;;;;;;;44.00;20.35;;;;;;;17.39;62.63;99130.00;4824938;29;20057;-66
2021/12/28 11:31:24;;;;;;;47.85;22.02;;;;;;;17.35;63.39;99133.66;4822390;29;20050;-67
2021/12/28 11:34:26;;;;;;;57.25;24.42;;;;;;;17.30;63.51;99130.47;4825395;29;20054;-68
2021/12/28 11:37:17;;;;;;;61.28;24.83;;;;;;;17.17;63.84;99125.00;4829016;29;20498;-68
2021/12/28 11:40:10;;;;;;;53.22;23.00;;;;;;;17.09;65.81;99128.00;4821186;29;20590;-68
2021/12/28 11:42:54;;;;;;;52.15;23.20;;;;;;;17.02;67.99;99125.75;4827463;29;20451;-67
2021/12/28 11:45:42;;;;;;;52.72;23.42;;;;;;;16.89;67.56;99135.94;4824170;29;20062;-68
2021/12/28 11:48:24;;;;;;;52.50;23.95;;;;;;;16.81;68.34;99133.72;4825433;29;20466;-65
2021/12/28 11:51:14;;;;;;;46.38;23.10;;;;;;;16.74;68.29;99137.53;4826475;29;20065;-65
2021/12/28 11:53:56;;;;;;;55.33;24.27;;;;;;;16.63;70.70;99134.56;4824912;29;20497;-64
2021/12/28 11:57:00;;;;;;;46.13;24.58;;;;;;;16.53;70.10;99142.84;4828816;29;20061;-62
2021/12/28 11:59:49;;;;;;;57.35;23.48;;;;;;;16.50;71.21;99137.81;4819315;29;20119;-64
2021/12/28 12:03:01;;;;;;;52.15;23.90;;;;;;;16.36;72.59;99141.88;4808234;29;20058;-62
2021/12/28 12:05:44;;;;;;;56.55;22.95;;;;;;;16.23;75.80;99145.09;4805427;29;20647;-69
2021/12/28 12:08:40;;;;;;;57.58;24.50;;;;;;;16.09;76.41;99148.34;4825827;29;20119;-68
2021/12/28 12:11:27;;;;;;;66.57;24.67;;;;;;;15.99;77.95;99145.31;4822979;29;20049;-66
2021/12/28 12:14:16;;;;;;;57.60;25.30;;;;;;;15.88;78.88;99138.91;4830833;29;20411;-69
2021/12/28 12:17:29;;;;;;;63.20;27.02;;;;;;;15.84;79.49;99155.53;4814173;29;20505;-67
2021/12/28 12:20:20;;;;;;;65.97;27.02;;;;;;;15.69;80.28;99152.69;4826458;29;20042;-69
2021/12/28 12:23:12;;;;;;;61.25;29.80;;;;;;;15.53;80.86;99149.06;4831861;29;20137;-64
2021/12/28 12:26:09;;;;;;;66.35;29.48;;;;;;;15.51;83.44;99153.44;4825399;29;20162;-67
2021/12/28 12:28:58;;;;;;;69.95;29.98;;;;;;;15.41;84.68;99165.09;4828242;29;20080;-70
2021/12/28 12:31:49;;;;;;;67.22;29.98;;;;;;;15.16;84.08;99161.88;4818968;29;20429;-67
2021/12/28 12:34:37;;;;;;;70.20;31.45;;;;;;;15.18;86.00;99160.88;4815495;29;20066;-65
2021/12/28 12:37:28;;;;;;;78.43;31.20;;;;;;;15.05;86.89;99166.63;4817311;29;20102;-66
2021/12/28 12:40:09;;;;;;;63.25;31.83;;;;;;;14.91;87.76;99170.63;4815002;29;20508;-67
2021/12/28 12:43:21;;;;;;;67.82;30.58;;;;;;;14.89;88.40;99164.66;4481954;29;10000975;-69
2021/12/28 12:46:47;;;;;;;77.88;32.33;;;;;;;14.77;90.10;99170.31;4821693;29;20089;-69
2021/12/28 12:49:39;;;;;;;;;;;;;;;14.76;90.91;99171.25;4834140;29;20061;-69
2021/12/28 12:52:29;;;;;;;76.50;33.95;;;;;;;14.73;92.03;99166.16;4838300;29;19924;-72
2021/12/28 12:55:14;;;;;;;87.05;35.45;;;;;;;14.70;92.82;99178.38;4837923;29;20062;-76